createdAt,value
2017-03-18T00:04:07.352Z,999.77
2017-03-18T00:09:03.675Z,999.53
2017-03-18T00:14:00.343Z,999.31
2017-03-18T00:18:57.406Z,999.13
2017-03-18T00:23:53.705Z,998.87
2017-03-18T00:28:50.365Z,998.69
2017-03-18T00:33:47.011Z,998.37
2017-03-18T00:38:43.325Z,998.31
2017-03-18T00:43:40.640Z,998.18
2017-03-18T00:48:36.778Z,997.92
2017-03-18T00:53:33.424Z,997.78
2017-03-18T00:58:29.928Z,997.58
2017-03-18T01:03:26.472Z,997.48
2017-03-18T01:08:23.325Z,997.34
2017-03-18T01:13:20.260Z,997.21
2017-03-18T01:18:16.909Z,996.98
2017-03-18T01:23:14.781Z,996.94
2017-03-18T01:28:10.948Z,996.68
2017-03-18T01:33:08.518Z,996.61
2017-03-18T01:38:05.391Z,996.59
2017-03-18T01:43:01.959Z,996.48
2017-03-18T01:47:58.708Z,996.31
2017-03-18T01:52:55.009Z,996.34
2017-03-18T01:57:52.461Z,996.42
2017-03-18T02:02:49.104Z,996.13
2017-03-18T02:07:45.495Z,996.09
2017-03-18T02:12:43.507Z,995.71
2017-03-18T02:17:39.845Z,995.66
2017-03-18T02:22:36.326Z,995.39
2017-03-18T02:27:32.695Z,995.51
2017-03-18T02:32:29.495Z,995.30
2017-03-18T02:37:25.858Z,995.22
2017-03-18T02:42:27.843Z,995.18
2017-03-18T02:47:23.389Z,995.00
2017-03-18T02:52:20.140Z,994.92
2017-03-18T02:57:16.723Z,994.83
2017-03-18T03:02:13.782Z,994.82
2017-03-18T03:07:10.122Z,994.79
2017-03-18T03:12:06.360Z,994.52
2017-03-18T03:17:02.979Z,994.66
2017-03-18T03:21:59.506Z,994.53
2017-03-18T03:26:56.092Z,994.59
2017-03-18T03:31:53.177Z,994.53
2017-03-18T03:36:49.913Z,994.37
2017-03-18T03:41:46.618Z,994.29
2017-03-18T03:46:43.296Z,994.32
2017-03-18T03:51:39.695Z,994.37
2017-03-18T03:56:36.357Z,994.31
2017-03-18T04:01:33.580Z,994.14
2017-03-18T04:06:29.954Z,994.11
2017-03-18T04:11:26.491Z,994.12
2017-03-18T04:16:22.976Z,994.20
2017-03-18T04:21:19.830Z,994.09
2017-03-18T04:26:16.378Z,994.15
2017-03-18T04:31:12.810Z,994.09
2017-03-18T04:36:09.257Z,994.14
2017-03-18T04:41:06.215Z,994.01
2017-03-18T04:46:03.252Z,993.95
2017-03-18T04:51:00.854Z,994.01
2017-03-18T04:55:57.573Z,993.92
2017-03-18T05:00:54.094Z,993.93
2017-03-18T05:05:50.634Z,994.09
2017-03-18T05:10:47.378Z,993.98
2017-03-18T05:15:44.195Z,994.12
2017-03-18T05:20:40.995Z,994.20
2017-03-18T05:25:37.782Z,994.34
2017-03-18T05:30:34.434Z,994.42
2017-03-18T05:35:30.995Z,994.57
2017-03-18T05:40:27.490Z,994.49
2017-03-18T05:45:24.244Z,994.65
2017-03-18T05:50:20.633Z,994.53
2017-03-18T05:55:17.586Z,994.65
2017-03-18T06:00:14.430Z,994.44
2017-03-18T06:05:10.890Z,994.62
2017-03-18T06:10:09.482Z,994.62
2017-03-18T06:15:05.130Z,994.70
2017-03-18T06:20:02.090Z,994.60
2017-03-18T06:24:58.943Z,994.74
2017-03-18T06:29:55.629Z,994.66
2017-03-18T06:34:52.711Z,994.50
2017-03-18T06:39:49.005Z,994.61
2017-03-18T06:44:45.502Z,994.58
2017-03-18T06:49:42.003Z,994.68
2017-03-18T06:54:38.688Z,994.91
2017-03-18T06:59:35.756Z,994.86
2017-03-18T07:04:32.162Z,994.90
2017-03-18T07:09:28.565Z,995.13
2017-03-18T07:14:25.744Z,995.21
2017-03-18T07:19:22.061Z,995.34
2017-03-18T07:24:20.184Z,995.33
2017-03-18T07:29:16.000Z,995.44
2017-03-18T07:34:12.352Z,995.47
2017-03-18T07:39:08.990Z,995.40
2017-03-18T07:44:05.575Z,995.61
2017-03-18T07:49:03.228Z,995.66
2017-03-18T07:53:59.402Z,995.58
2017-03-18T07:58:56.086Z,995.60
2017-03-18T08:03:53.544Z,995.72
2017-03-18T08:08:49.758Z,995.80
2017-03-18T08:13:46.791Z,995.79
2017-03-18T08:18:43.343Z,995.80
2017-03-18T08:23:39.962Z,995.93
2017-03-18T08:28:36.892Z,995.81
2017-03-18T08:33:33.684Z,996.02
2017-03-18T08:38:29.724Z,996.13
2017-03-18T08:43:26.582Z,996.11
2017-03-18T08:48:23.072Z,996.23
2017-03-18T08:53:22.548Z,996.21
2017-03-18T08:58:18.587Z,996.36
2017-03-18T09:03:15.015Z,996.45
2017-03-18T09:08:11.702Z,996.45
2017-03-18T09:13:08.650Z,996.55
2017-03-18T09:18:05.753Z,996.42
2017-03-18T09:23:02.396Z,996.51
2017-03-18T09:27:58.746Z,996.49
2017-03-18T09:32:55.379Z,996.53
2017-03-18T09:37:52.100Z,996.74
2017-03-18T09:42:48.276Z,996.81
2017-03-18T09:47:45.580Z,996.96
2017-03-18T09:52:41.856Z,997.05
2017-03-18T09:57:38.412Z,997.24
2017-03-18T10:02:34.643Z,997.20
2017-03-18T10:07:31.250Z,997.18
2017-03-18T10:12:28.680Z,997.21
2017-03-18T10:17:26.016Z,997.27
2017-03-18T10:22:23.909Z,997.35
2017-03-18T10:27:20.334Z,997.36
2017-03-18T10:32:16.910Z,997.43
2017-03-18T10:37:13.455Z,997.64
2017-03-18T10:42:10.199Z,997.62
2017-03-18T10:47:06.787Z,997.63
2017-03-18T10:52:03.381Z,997.62
2017-03-18T10:57:00.110Z,997.62
2017-03-18T11:01:56.935Z,997.64
2017-03-18T11:06:53.965Z,997.76
2017-03-18T11:11:50.702Z,997.74
2017-03-18T11:16:47.502Z,997.88
2017-03-18T11:21:44.353Z,997.76
2017-03-18T11:26:41.576Z,997.98
2017-03-18T11:31:39.094Z,997.84
2017-03-18T11:36:35.931Z,998.12
2017-03-18T11:41:31.705Z,998.05
2017-03-18T11:46:29.957Z,998.12
2017-03-18T11:51:25.623Z,998.20
2017-03-18T11:56:22.124Z,998.19
2017-03-18T12:01:18.874Z,998.37
2017-03-18T12:06:15.665Z,998.33
2017-03-18T12:11:12.710Z,998.33
2017-03-18T12:16:09.068Z,998.34
2017-03-18T12:21:06.960Z,998.43
2017-03-18T12:26:03.733Z,998.43
2017-03-18T12:31:02.774Z,998.40
2017-03-18T12:35:58.865Z,998.28
2017-03-18T12:40:57.435Z,998.29
2017-03-18T12:45:53.607Z,998.33
2017-03-18T12:50:49.955Z,998.42
2017-03-18T12:55:45.874Z,998.52
2017-03-18T13:00:42.043Z,998.61
2017-03-18T13:05:38.098Z,998.92
2017-03-18T13:10:34.749Z,998.91
2017-03-18T13:15:31.070Z,998.79
2017-03-18T13:20:28.549Z,998.69
2017-03-18T13:25:24.775Z,998.94
2017-03-18T13:30:22.129Z,998.99
2017-03-18T13:35:18.141Z,999.02
2017-03-18T13:40:14.648Z,999.06
2017-03-18T13:45:10.875Z,999.02
2017-03-18T13:50:09.673Z,999.09
2017-03-18T13:55:05.398Z,999.13
2017-03-18T14:00:01.464Z,999.19
2017-03-18T14:04:57.727Z,999.46
2017-03-18T14:09:54.566Z,999.51
2017-03-18T14:14:51.355Z,999.77
2017-03-18T14:19:47.552Z,999.79
2017-03-18T14:24:43.832Z,999.73
2017-03-18T14:29:42.179Z,999.74
2017-03-18T14:34:39.037Z,999.92
2017-03-18T14:39:35.564Z,1000.07
2017-03-18T14:44:31.915Z,1000.18
2017-03-18T14:49:28.438Z,1000.14
2017-03-18T14:54:25.021Z,1000.24
2017-03-18T14:59:21.655Z,1000.21
2017-03-18T15:04:18.064Z,1000.18
2017-03-18T15:09:14.370Z,1000.02
2017-03-18T15:14:10.886Z,999.96
2017-03-18T15:19:07.832Z,999.92
2017-03-18T15:24:04.951Z,999.97
2017-03-18T15:29:01.775Z,1000.09
2017-03-18T15:33:58.111Z,1000.14
2017-03-18T15:38:54.776Z,1000.13
2017-03-18T15:43:51.370Z,1000.00
2017-03-18T15:48:47.936Z,999.87
2017-03-18T15:53:44.552Z,999.93
2017-03-18T15:58:40.892Z,999.77
2017-03-18T16:03:37.275Z,999.82
2017-03-18T16:08:36.691Z,1000.02
2017-03-18T16:13:32.469Z,999.94
2017-03-18T16:18:28.851Z,1000.24
2017-03-18T16:23:25.850Z,1000.32
2017-03-18T16:28:22.292Z,1000.24
2017-03-18T16:33:18.691Z,1000.25
2017-03-18T16:38:15.212Z,1000.47
2017-03-18T16:43:11.355Z,1000.59
2017-03-18T16:48:08.537Z,1000.56
2017-03-18T16:53:04.833Z,1000.77
2017-03-18T16:58:01.285Z,1000.62
2017-03-18T17:02:58.829Z,1000.63
2017-03-18T17:07:54.484Z,1000.74
2017-03-18T17:12:50.959Z,1000.62
2017-03-18T17:17:47.450Z,1000.61
2017-03-18T17:22:44.091Z,1000.77
2017-03-18T17:27:42.393Z,1000.78
2017-03-18T17:32:39.289Z,1000.77
2017-03-18T17:37:36.251Z,1000.80
2017-03-18T17:42:32.968Z,1000.91
2017-03-18T17:47:29.513Z,1001.01
2017-03-18T17:52:25.816Z,1000.99
2017-03-18T17:57:22.968Z,1001.04
2017-03-18T18:02:19.234Z,1000.97
2017-03-18T18:07:16.064Z,1001.07
2017-03-18T18:12:13.276Z,1001.31
2017-03-18T18:17:09.735Z,1001.43
2017-03-18T18:22:06.279Z,1001.69
2017-03-18T18:27:02.601Z,1001.77
2017-03-18T18:31:58.878Z,1001.73
2017-03-18T18:36:55.510Z,1001.94
2017-03-18T18:41:52.857Z,1001.82
2017-03-18T18:46:49.576Z,1002.03
2017-03-18T18:51:45.758Z,1001.92
2017-03-18T18:56:42.577Z,1002.05
2017-03-18T19:01:38.771Z,1002.32
2017-03-18T19:06:35.178Z,1002.44
2017-03-18T19:11:31.865Z,1002.42
2017-03-18T19:16:28.468Z,1002.53
2017-03-18T19:21:25.199Z,1002.43
2017-03-18T19:26:21.767Z,1002.54
2017-03-18T19:31:18.262Z,1002.58
2017-03-18T19:36:14.395Z,1002.50
2017-03-18T19:41:11.308Z,1002.65
2017-03-18T19:46:07.675Z,1002.66
2017-03-18T19:51:05.064Z,1002.74
2017-03-18T19:56:01.314Z,1002.82
2017-03-18T20:00:58.433Z,1002.77
2017-03-18T20:05:54.801Z,1002.78
2017-03-18T20:10:51.259Z,1002.72
2017-03-18T20:15:48.744Z,1002.78
2017-03-18T20:20:44.967Z,1002.95
2017-03-18T20:25:42.214Z,1002.71
2017-03-18T20:30:39.603Z,1002.75
2017-03-18T20:35:35.766Z,1002.99
2017-03-18T20:40:32.180Z,1002.86
2017-03-18T20:45:28.692Z,1002.87
2017-03-18T20:50:25.767Z,1002.74
2017-03-18T20:55:22.147Z,1002.94
2017-03-18T21:00:18.590Z,1002.79
2017-03-18T21:05:15.001Z,1002.79
2017-03-18T21:10:11.753Z,1002.77
2017-03-18T21:15:09.247Z,1002.62
2017-03-18T21:20:05.782Z,1002.48
2017-03-18T21:25:02.075Z,1002.46
2017-03-18T21:29:59.067Z,1002.64
2017-03-18T21:34:55.519Z,1002.84
2017-03-18T21:39:51.993Z,1002.83
2017-03-18T21:44:48.383Z,1002.85
2017-03-18T21:49:44.798Z,1002.86
2017-03-18T21:54:41.429Z,1002.81
2017-03-18T21:59:37.468Z,1002.87
2017-03-18T22:04:33.927Z,1002.99
2017-03-18T22:09:30.433Z,1002.98
2017-03-18T22:14:27.592Z,1003.17
2017-03-18T22:19:24.103Z,1003.13
2017-03-18T22:24:20.619Z,1003.11
2017-03-18T22:29:17.023Z,1003.15
2017-03-18T22:34:13.557Z,1003.28
2017-03-18T22:39:10.160Z,1003.31
2017-03-18T22:44:06.465Z,1003.17
2017-03-18T22:49:02.942Z,1003.15
2017-03-18T22:53:59.848Z,1003.15
2017-03-18T22:58:56.462Z,1002.86
2017-03-18T23:03:52.939Z,1002.85
2017-03-18T23:08:49.974Z,1003.00
2017-03-18T23:13:46.499Z,1002.78
2017-03-18T23:18:43.295Z,1002.78
2017-03-18T23:23:39.736Z,1002.86
2017-03-18T23:28:35.788Z,1002.87
2017-03-18T23:33:32.091Z,1002.89
2017-03-18T23:38:28.798Z,1002.79
2017-03-18T23:43:25.256Z,1002.96
2017-03-18T23:48:21.739Z,1003.00
2017-03-18T23:53:18.059Z,1003.03
2017-03-18T23:58:14.215Z,1002.94
